Time;durP1;ratioP1;P1;durP2;ratioP2;P2;SDS_P1;SDS_P2;PMS_P1;PMS_P2;Temp;Humidity;BMP_temperature;BMP_pressure;BME280_temperature;BME280_humidity;BME280_pressure;Samples;Min_cycle;Max_cycle;Signal;HPM_P1;HPM_P2
2024/01/22 00:00:05;;;;;;;6.45;4.43;;;4.60;99.90;;;4.39;81.77;101196.09;4846657;28;24443;-64
2024/01/22 00:02:27;;;;;;;7.47;4.57;;;4.60;99.90;;;4.42;82.25;101185.66;4834344;28;20794;-65
2024/01/22 00:04:49;;;;;;;6.25;4.53;;;4.60;99.90;;;4.39;82.11;101185.75;4843296;28;25051;-64
2024/01/22 00:07:10;;;;;;;4.45;3.67;;;4.60;99.90;;;4.39;81.81;101181.44;4851215;28;25045;-64
2024/01/22 00:09:32;;;;;;;6.00;4.15;;;4.60;99.90;;;4.40;82.60;101180.56;4831133;28;25076;-65
2024/01/22 00:11:54;;;;;;;6.35;3.90;;;4.60;99.90;;;4.42;81.62;101176.19;4847143;28;21206;-66
2024/01/22 00:14:17;;;;;;;4.88;3.88;;;4.60;99.90;;;4.46;82.09;101176.88;4826172;28;24539;-66
2024/01/22 00:16:39;;;;;;;6.32;4.10;;;4.60;99.90;;;4.40;81.36;101170.22;4838417;28;20809;-65
2024/01/22 00:19:01;;;;;;;4.38;2.78;;;4.60;99.90;;;4.34;81.94;101173.03;4849641;28;24458;-64
2024/01/22 00:21:23;;;;;;;4.07;3.67;;;4.60;99.90;;;4.36;81.28;101175.56;4857151;28;25049;-64
2024/01/22 00:23:45;;;;;;;4.70;3.60;;;4.60;99.90;;;4.37;81.86;101169.47;4854803;28;20800;-64
2024/01/22 00:26:12;;;;;;;5.30;4.10;;;4.60;99.90;;;4.36;82.28;101162.66;4846820;28;24443;-64
2024/01/22 00:28:34;;;;;;;5.07;3.77;;;4.60;99.90;;;4.42;81.81;101160.66;4848159;28;21595;-65
2024/01/22 00:30:56;;;;;;;3.88;3.22;;;4.60;99.90;;;4.46;81.49;101163.97;4849346;28;24458;-65
2024/01/22 00:33:18;;;;;;;6.25;3.90;;;4.70;99.90;;;4.44;81.79;101164.03;4845619;28;24478;-64
2024/01/22 00:35:40;;;;;;;4.20;3.80;;;4.70;99.90;;;4.42;81.54;101155.50;4847036;28;25032;-65
2024/01/22 00:38:02;;;;;;;5.10;3.75;;;4.70;99.90;;;4.44;82.12;101151.13;4837351;28;21145;-65
2024/01/22 00:40:23;;;;;;;5.88;3.88;;;4.70;99.90;;;4.41;82.19;101147.78;4843152;28;24482;-65
2024/01/22 00:42:45;;;;;;;5.82;4.00;;;4.60;99.90;;;4.36;82.01;101139.41;4837890;28;20811;-65
2024/01/22 00:45:08;;;;;;;4.05;3.60;;;4.60;99.90;;;4.38;82.59;101140.19;4851280;28;24490;-65
2024/01/22 00:47:30;;;;;;;4.10;3.70;;;4.60;99.90;;;4.39;82.30;101131.50;4854527;28;20876;-63
2024/01/22 00:49:52;;;;;;;5.78;3.70;;;4.60;99.90;;;4.43;82.27;101130.50;4855813;28;24439;-63
2024/01/22 00:52:14;;;;;;;7.22;3.70;;;4.70;99.90;;;4.45;82.21;101132.13;4853621;28;24471;-64
2024/01/22 00:54:36;;;;;;;4.90;3.65;;;4.70;99.90;;;4.44;82.76;101114.94;4822997;28;24515;-63
2024/01/22 00:56:58;;;;;;;5.72;3.80;;;4.70;99.90;;;4.41;82.71;101117.63;4837088;28;20810;-64
2024/01/22 00:59:20;;;;;;;6.63;3.40;;;4.70;99.90;;;4.29;82.91;101110.38;4820827;28;24445;-64
2024/01/22 01:01:42;;;;;;;3.70;3.40;;;4.60;99.90;;;4.29;83.58;101112.94;4855226;28;24518;-64
2024/01/22 01:04:04;;;;;;;3.30;3.00;;;4.50;99.90;;;4.36;83.17;101109.25;4833039;28;24543;-65
2024/01/22 01:06:26;;;;;;;5.50;3.40;;;4.50;99.90;;;4.31;83.08;101105.97;4849109;28;20777;-65
2024/01/22 01:08:48;;;;;;;6.15;3.60;;;4.50;99.90;;;4.25;83.77;101108.81;4835308;28;24522;-65
2024/01/22 01:11:10;;;;;;;3.90;3.25;;;4.50;99.90;;;4.26;83.64;101110.47;4831089;28;24455;-65
2024/01/22 01:13:32;;;;;;;3.58;3.25;;;4.50;99.90;;;4.22;83.76;101111.50;4845315;28;24480;-64
2024/01/22 01:15:54;;;;;;;4.55;3.55;;;4.50;99.90;;;4.26;84.40;101105.31;4851887;28;21154;-64
2024/01/22 01:18:16;;;;;;;4.53;3.30;;;4.50;99.90;;;4.25;84.82;101105.38;4830189;28;25024;-65
2024/01/22 01:20:39;;;;;;;4.77;3.70;;;4.50;99.90;;;4.30;84.15;101106.06;4852679;28;20853;-65
2024/01/22 01:23:01;;;;;;;4.40;3.45;;;4.50;99.90;;;4.37;84.06;101100.56;4853089;28;25353;-65
2024/01/22 01:25:23;;;;;;;4.50;3.67;;;4.60;99.90;;;4.31;84.07;101111.16;4855548;28;24874;-65
2024/01/22 01:27:45;;;;;;;5.05;3.33;;;4.60;99.90;;;4.26;84.76;101101.91;4853425;28;24540;-65
2024/01/22 01:30:10;;;;;;;6.65;3.50;;;4.50;99.90;;;4.24;84.41;101101.94;4857131;28;24489;-66
2024/01/22 01:32:32;;;;;;;3.80;3.30;;;4.50;99.90;;;4.26;83.94;101102.72;4828687;28;24464;-66
2024/01/22 01:34:54;;;;;;;4.63;3.10;;;4.50;99.90;;;4.25;84.44;101085.56;4808135;28;24448;-64
2024/01/22 01:37:16;;;;;;;3.47;3.13;;;4.50;99.90;;;4.30;84.30;101093.94;4853042;28;24502;-64
2024/01/22 01:39:38;;;;;;;5.00;3.15;;;4.50;99.90;;;4.29;84.23;101081.94;4835031;28;24483;-65
2024/01/22 01:42:00;;;;;;;3.20;2.90;;;4.50;99.90;;;4.36;84.19;101082.56;4844610;28;24527;-65
2024/01/22 01:44:51;;;;;;;6.28;2.40;;;4.60;99.90;;;4.38;83.66;101081.59;4836198;28;24551;-66
2024/01/22 01:47:13;;;;;;;4.47;2.50;;;4.60;99.90;;;4.41;83.32;101068.53;4834175;28;21401;-65
2024/01/22 01:49:35;;;;;;;3.17;2.40;;;4.60;99.90;;;4.35;83.33;101066.22;4836442;28;24536;-65
2024/01/22 01:51:58;;;;;;;4.80;2.92;;;4.60;99.90;;;4.32;83.53;101060.34;4852792;28;24431;-64
2024/01/22 01:54:20;;;;;;;3.67;2.55;;;4.60;99.90;;;4.45;83.36;101057.19;4845811;28;24866;-66
2024/01/22 01:56:42;;;;;;;2.38;2.28;;;4.60;99.90;;;4.47;83.28;101054.56;4835345;28;24438;-65
2024/01/22 01:59:04;;;;;;;3.33;2.08;;;4.70;99.90;;;4.41;83.32;101047.03;4838711;28;20810;-65
2024/01/22 02:01:26;;;;;;;4.65;2.58;;;4.60;99.90;;;4.46;83.10;101042.53;4820434;28;24547;-65
2024/01/22 02:03:48;;;;;;;2.10;2.00;;;4.70;99.90;;;4.54;83.24;101041.31;4832146;28;24452;-65
2024/01/22 02:06:10;;;;;;;2.20;2.00;;;4.70;99.90;;;4.54;82.94;101045.63;4829357;28;24431;-65
2024/01/22 02:08:32;;;;;;;2.33;2.20;;;4.70;99.90;;;4.62;82.05;101033.25;4830391;28;20821;-64
2024/01/22 02:10:54;;;;;;;1.60;1.50;;;4.80;99.90;;;4.63;81.93;101024.59;4834870;28;24433;-64
2024/01/22 02:13:16;;;;;;;4.53;2.22;;;4.80;99.90;;;4.62;81.53;101021.16;4854171;28;20779;-63
2024/01/22 02:15:38;;;;;;;1.70;1.58;;;4.80;99.90;;;4.67;81.08;101026.16;4844160;28;24466;-64
2024/01/22 02:18:02;;;;;;;1.30;1.20;;;4.90;99.90;;;4.71;80.99;101018.19;4847490;28;20788;-64
2024/01/22 02:20:24;;;;;;;3.33;1.90;;;4.90;99.90;;;4.81;80.72;101012.66;4850050;28;20865;-64
2024/01/22 02:22:46;;;;;;;2.83;2.10;;;5.00;99.90;;;4.80;80.35;100995.44;4837003;28;24522;-66
2024/01/22 02:25:08;;;;;;;3.40;2.10;;;5.00;99.90;;;4.82;79.49;100991.06;4849639;28;20784;-65
2024/01/22 02:27:31;;;;;;;1.50;1.40;;;5.00;99.90;;;4.82;79.88;100991.91;4852034;28;24529;-65
2024/01/22 02:29:53;;;;;;;1.15;1.15;;;5.00;99.90;;;4.86;79.48;100990.00;4848600;28;24435;-65
2024/01/22 02:32:15;;;;;;;1.60;1.50;;;5.00;99.90;;;4.97;79.29;100992.97;4835765;28;24452;-65
2024/01/22 02:34:37;;;;;;;1.80;1.58;;;5.10;99.90;;;5.02;79.58;100980.69;4824403;28;24547;-64
2024/01/22 02:36:59;;;;;;;3.03;2.00;;;5.10;99.90;;;5.03;78.82;100982.38;4819504;28;24443;-65
2024/01/22 02:39:21;;;;;;;3.10;2.20;;;5.20;99.90;;;5.04;78.90;100971.97;4840438;28;24428;-64
2024/01/22 02:41:43;;;;;;;3.60;1.70;;;5.20;99.90;;;5.04;78.99;100965.97;4848724;28;24532;-64
2024/01/22 02:44:05;;;;;;;1.95;1.48;;;5.20;99.90;;;5.05;78.73;100960.72;4853363;28;25058;-63
2024/01/22 02:46:27;;;;;;;1.80;1.50;;;5.30;99.90;;;5.09;79.01;100956.25;4853014;28;24589;-64
2024/01/22 02:48:49;;;;;;;2.40;2.20;;;5.30;99.90;;;5.09;78.69;100948.50;4836224;28;25065;-63
2024/01/22 02:51:11;;;;;;;2.45;2.20;;;5.30;99.90;;;5.06;78.72;100941.72;4851847;28;24539;-64
2024/01/22 02:53:33;;;;;;;3.10;2.20;;;5.30;99.90;;;5.05;78.82;100931.41;4852294;28;20780;-65
2024/01/22 02:55:55;;;;;;;2.50;2.08;;;5.30;99.90;;;5.02;78.56;100939.31;4828459;28;24456;-64
2024/01/22 02:58:17;;;;;;;2.07;1.90;;;5.20;99.90;;;5.05;79.02;100934.00;4819864;28;20913;-65
2024/01/22 03:00:39;;;;;;;2.13;1.92;;;5.20;99.90;;;5.03;78.79;100920.31;4849708;28;24439;-65
2024/01/22 03:03:02;;;;;;;1.67;1.58;;;5.20;99.90;;;5.03;79.13;100938.41;4836290;28;24523;-65
2024/01/22 03:05:24;;;;;;;2.40;2.20;;;5.20;99.90;;;5.00;78.70;100935.97;4846240;28;24814;-65
2024/01/22 03:07:46;;;;;;;1.70;1.60;;;5.20;99.90;;;4.99;78.73;100934.28;4820990;28;20873;-65
2024/01/22 03:10:08;;;;;;;5.50;2.22;;;5.20;99.90;;;5.01;78.64;100928.13;4852549;28;24438;-64
2024/01/22 03:12:30;;;;;;;2.50;2.00;;;5.20;99.90;;;4.98;78.51;100933.47;4827405;28;20790;-61
2024/01/22 03:14:52;;;;;;;3.40;1.90;;;5.20;99.90;;;5.10;78.21;100926.88;4853042;28;24428;-64
2024/01/22 03:17:14;;;;;;;2.38;2.17;;;5.30;99.90;;;5.05;78.17;100921.91;4845051;28;24876;-64
2024/01/22 03:19:37;;;;;;;2.92;1.40;;;5.30;99.90;;;5.03;78.30;100915.97;4850308;28;24515;-64
2024/01/22 03:21:59;;;;;;;3.50;1.10;;;5.20;99.90;;;5.03;78.33;100909.97;4849435;28;24458;-66
2024/01/22 03:24:22;;;;;;;2.00;1.40;;;5.30;99.90;;;5.06;78.06;100904.66;4850965;28;24454;-63
2024/01/22 03:26:44;;;;;;;1.30;1.30;;;5.30;99.90;;;5.10;78.19;100901.03;4835969;28;25014;-63
2024/01/22 03:29:06;;;;;;;1.88;1.77;;;5.30;99.90;;;4.99;78.25;100898.06;4853283;28;21373;-64
2024/01/22 03:31:29;;;;;;;2.30;2.10;;;5.20;99.90;;;4.92;78.49;100891.53;4839735;28;24527;-64
2024/01/22 03:33:53;;;;;;;1.20;1.20;;;5.10;99.90;;;4.84;78.99;100894.44;4817374;28;24537;-64
2024/01/22 03:36:15;;;;;;;3.70;1.80;;;5.10;99.90;;;4.89;78.31;100896.81;4847530;28;24537;-66
2024/01/22 03:38:38;;;;;;;2.25;2.05;;;5.10;99.90;;;4.91;78.81;100900.16;4851946;28;24538;-65
2024/01/22 03:41:00;;;;;;;0.90;0.90;;;5.10;99.90;;;4.91;78.39;100920.84;4836964;28;21131;-64
2024/01/22 03:43:22;;;;;;;1.42;1.10;;;5.10;99.90;;;4.94;78.46;100916.38;4833505;28;24540;-64
2024/01/22 03:45:44;;;;;;;1.10;1.00;;;5.20;99.90;;;4.91;77.95;100910.50;4850200;28;20795;-63
2024/01/22 03:48:06;;;;;;;1.33;1.23;;;5.10;99.90;;;4.89;78.08;100913.19;4841274;28;24452;-64
2024/01/22 03:50:28;;;;;;;1.55;1.20;;;5.10;99.90;;;4.89;77.95;100892.50;4825773;28;20838;-64
2024/01/22 03:52:50;;;;;;;3.90;2.22;;;5.10;99.90;;;4.86;78.51;100891.75;4839935;28;24899;-65
2024/01/22 03:55:12;;;;;;;1.60;1.37;;;5.10;99.90;;;4.85;78.64;100892.69;4847608;28;20976;-63
2024/01/22 03:57:34;;;;;;;2.30;2.10;;;5.00;99.90;;;4.84;79.27;100888.41;4854411;28;24538;-64
2024/01/22 03:59:56;;;;;;;2.10;1.60;;;5.10;99.90;;;4.78;79.30;100883.50;4835109;28;21367;-62
2024/01/22 04:02:20;;;;;;;3.67;1.40;;;5.00;99.90;;;4.89;78.62;100876.97;4854394;28;20773;-64
2024/01/22 04:04:42;;;;;;;2.65;1.85;;;5.10;99.90;;;4.84;79.23;100878.91;4841952;28;24543;-64
2024/01/22 04:07:04;;;;;;;1.23;1.20;;;5.10;99.90;;;4.80;79.50;100859.28;4849235;28;20804;-64
2024/01/22 04:09:26;;;;;;;2.30;1.90;;;5.00;99.90;;;4.83;79.72;100872.09;4847246;28;24538;-64
2024/01/22 04:11:49;;;;;;;2.90;1.17;;;5.00;99.90;;;4.87;79.61;100854.69;4846893;28;20883;-64
2024/01/22 04:14:11;;;;;;;1.88;1.73;;;5.10;99.90;;;4.86;79.86;100846.06;4855406;28;25008;-64
2024/01/22 04:16:32;;;;;;;2.67;1.90;;;5.10;99.90;;;4.86;79.76;100842.66;4837908;28;20789;-63
2024/01/22 04:18:54;;;;;;;1.45;1.35;;;5.10;99.90;;;4.81;79.98;100829.09;4836051;28;24527;-64
2024/01/22 04:21:16;;;;;;;2.50;2.30;;;5.00;99.90;;;4.79;80.18;100834.34;4847628;28;20793;-63
2024/01/22 04:23:38;;;;;;;1.50;1.30;;;5.00;99.90;;;4.77;80.74;100848.25;4854233;28;25053;-64
2024/01/22 04:26:05;;;;;;;1.70;1.45;;;5.00;99.90;;;4.88;80.01;100833.06;4835060;28;20779;-63
2024/01/22 04:28:27;;;;;;;1.20;1.20;;;5.00;99.90;;;4.83;80.29;100816.94;4853343;28;25033;-64
2024/01/22 04:30:50;;;;;;;4.03;2.45;;;5.00;99.90;;;4.92;80.53;100821.72;4856170;28;24454;-65
2024/01/22 04:33:12;;;;;;;1.73;1.27;;;5.10;99.90;;;4.94;80.61;100796.63;4856201;28;24436;-65
2024/01/22 04:35:34;;;;;;;1.50;1.40;;;5.10;99.90;;;4.95;80.54;100811.22;4829362;28;24464;-63
2024/01/22 04:37:56;;;;;;;1.70;1.60;;;5.10;99.90;;;5.01;80.54;100801.41;4831165;28;20802;-65
2024/01/22 04:40:18;;;;;;;1.70;1.60;;;5.20;99.90;;;5.01;80.84;100792.81;4856478;28;24527;-65
2024/01/22 04:42:44;;;;;;;1.60;1.17;;;5.20;99.90;;;4.99;80.75;100797.22;4855213;28;24540;-65
2024/01/22 04:45:06;;;;;;;2.13;1.17;;;5.20;99.90;;;5.01;81.34;100806.59;4837508;28;24452;-65
2024/01/22 04:47:28;;;;;;;0.90;0.90;;;5.20;99.90;;;5.18;80.87;100801.47;4853637;28;24446;-65
2024/01/22 04:49:50;;;;;;;0.90;0.90;;;5.30;99.90;;;5.27;80.62;100800.19;4820699;28;20812;-65
2024/01/22 04:52:12;;;;;;;1.20;1.10;;;5.40;99.90;;;5.43;80.71;100788.22;4847162;28;24849;-65
2024/01/22 04:54:34;;;;;;;1.00;1.00;;;5.50;99.90;;;5.53;80.46;100781.69;4854857;28;24612;-65
2024/01/22 04:56:56;;;;;;;0.90;0.90;;;5.70;99.90;;;5.67;80.02;100774.06;4847230;28;24940;-66
2024/01/22 04:59:18;;;;;;;1.00;1.00;;;5.80;99.90;;;5.75;79.42;100790.06;4855825;28;25005;-66
2024/01/22 05:01:40;;;;;;;0.70;0.70;;;5.80;99.90;;;5.83;78.35;100780.19;4851948;28;24439;-64
2024/01/22 05:04:03;;;;;;;1.83;1.10;;;6.00;99.90;;;5.91;78.92;100764.28;4851666;28;25080;-62
2024/01/22 05:06:25;;;;;;;1.20;1.00;;;6.00;99.90;;;5.92;77.59;100776.31;4846806;28;24444;-64
2024/01/22 05:08:47;;;;;;;0.95;0.90;;;6.10;99.90;;;5.87;77.72;100784.31;4837209;28;24801;-65
2024/01/22 05:11:09;;;;;;;0.60;0.60;;;6.10;99.90;;;5.94;77.71;100788.25;4855784;28;24904;-64
2024/01/22 05:13:31;;;;;;;2.20;1.60;;;6.10;99.90;;;5.98;77.90;100782.03;4837048;28;20813;-63
2024/01/22 05:15:53;;;;;;;2.30;1.10;;;6.20;99.90;;;5.94;78.02;100784.84;4837087;28;25026;-64
2024/01/22 05:18:15;;;;;;;0.95;0.90;;;6.10;99.90;;;5.92;77.31;100764.19;4850969;28;24440;-64
2024/01/22 05:20:37;;;;;;;1.50;0.90;;;6.10;99.90;;;5.84;78.26;100760.31;4835892;28;24567;-64
2024/01/22 05:22:59;;;;;;;1.10;1.10;;;6.00;99.90;;;5.83;77.57;100733.56;4846074;28;24915;-64
2024/01/22 05:25:21;;;;;;;1.90;0.73;;;6.10;99.90;;;5.81;78.05;100738.00;4832558;28;24554;-64
2024/01/22 05:27:47;;;;;;;0.80;0.80;;;6.00;99.90;;;5.82;77.68;100741.38;4838814;28;25050;-66
2024/01/22 05:30:09;;;;;;;0.90;0.90;;;6.00;99.90;;;5.80;77.95;100736.31;4853813;28;20833;-66
2024/01/22 05:32:32;;;;;;;0.63;0.63;;;6.00;99.90;;;5.77;77.35;100720.91;4854488;28;24428;-63
2024/01/22 05:34:54;;;;;;;0.90;0.75;;;6.00;99.90;;;5.73;77.62;100706.44;4852824;28;24538;-65
2024/01/22 05:37:16;;;;;;;1.10;1.10;;;5.90;99.90;;;5.76;77.80;100714.06;4851043;28;24442;-65
2024/01/22 05:39:38;;;;;;;0.68;0.68;;;5.90;99.90;;;5.81;76.93;100713.84;4823244;28;25041;-65
2024/01/22 05:42:00;;;;;;;1.77;0.80;;;6.00;99.90;;;5.85;76.32;100702.44;4820344;28;24429;-63
2024/01/22 05:44:22;;;;;;;0.70;0.70;;;6.00;99.90;;;5.84;76.62;100709.38;4819589;28;24532;-64
2024/01/22 05:46:44;;;;;;;0.70;0.70;;;6.10;99.90;;;5.90;76.71;100714.22;4839057;28;24530;-64
2024/01/22 05:49:06;;;;;;;0.70;0.70;;;6.10;99.90;;;5.89;76.38;100712.56;4848364;28;24970;-65
2024/01/22 05:51:29;;;;;;;1.75;1.00;;;6.10;99.90;;;5.97;75.86;100706.97;4828318;28;24448;-64
2024/01/22 05:53:51;;;;;;;1.02;0.90;;;6.10;99.90;;;6.00;76.09;100719.78;4844535;28;24944;-64
2024/01/22 05:56:25;;;;;;;0.90;0.80;;;6.20;99.90;;;6.00;75.86;100723.22;4854562;28;24432;-64
2024/01/22 05:58:47;;;;;;;0.90;0.90;;;6.20;99.90;;;5.94;75.47;100714.94;4852463;28;24443;-62
2024/01/22 06:01:09;;;;;;;1.05;0.90;;;6.10;99.90;;;5.88;75.86;100704.84;4835568;28;24482;-66
2024/01/22 06:03:31;;;;;;;1.50;0.80;;;6.10;99.90;;;5.92;75.81;100706.41;4854254;28;24424;-66
2024/01/22 06:05:53;;;;;;;0.80;0.80;;;6.10;99.90;;;5.87;76.09;100683.31;4853020;28;24476;-67
2024/01/22 06:08:15;;;;;;;0.70;0.70;;;6.10;99.90;;;5.86;76.34;100671.28;4831977;28;25083;-65
2024/01/22 06:10:37;;;;;;;1.35;0.70;;;6.00;99.90;;;5.87;75.21;100664.34;4852975;28;24504;-66
2024/01/22 06:12:59;;;;;;;0.80;0.75;;;6.00;99.90;;;5.93;75.26;100643.31;4854036;28;24523;-65
2024/01/22 06:15:21;;;;;;;1.20;0.82;;;6.10;99.90;;;5.91;75.04;100634.78;4851993;28;24443;-65
2024/01/22 06:17:44;;;;;;;1.45;1.00;;;6.10;99.90;;;5.89;74.65;100637.47;4841751;28;20780;-65
2024/01/22 06:20:09;;;;;;;0.80;0.80;;;6.10;99.90;;;5.89;74.89;100618.50;4853608;28;24432;-64
2024/01/22 06:22:33;;;;;;;0.70;0.70;;;6.10;99.90;;;5.91;74.83;100619.25;4850325;28;24456;-62
2024/01/22 06:24:55;;;;;;;1.50;1.20;;;6.10;99.90;;;5.86;74.66;100614.31;4826560;28;24466;-62
2024/01/22 06:27:17;;;;;;;1.10;0.90;;;6.10;99.90;;;5.98;75.20;100610.25;4847674;28;24486;-64
2024/01/22 06:29:39;;;;;;;1.88;1.27;;;6.10;99.90;;;6.00;74.35;100611.84;4851251;28;24551;-65
2024/01/22 06:32:02;;;;;;;1.80;1.10;;;6.20;99.90;;;6.01;74.22;100641.16;4846842;28;24452;-65
2024/01/22 06:34:23;;;;;;;0.68;0.68;;;6.20;99.90;;;6.09;74.03;100637.22;4832476;28;24427;-66
2024/01/22 06:36:46;;;;;;;0.90;0.90;;;6.30;99.90;;;6.14;74.61;100634.41;4849650;28;24524;-64
2024/01/22 06:39:08;;;;;;;0.80;0.80;;;6.30;99.90;;;6.15;74.34;100625.72;4843994;28;24844;-64
2024/01/22 06:41:31;;;;;;;1.10;1.00;;;6.30;99.90;;;6.14;73.82;100631.81;4837337;28;20761;-65
2024/01/22 06:43:53;;;;;;;1.10;0.95;;;6.30;99.90;;;6.17;74.34;100629.91;4845469;28;24448;-64
2024/01/22 06:46:15;;;;;;;0.90;0.70;;;6.40;99.90;;;6.12;74.25;100628.47;4853551;28;24503;-64
2024/01/22 06:48:37;;;;;;;0.80;0.80;;;6.30;99.90;;;6.18;74.24;100613.44;4853094;28;24432;-65
2024/01/22 06:50:59;;;;;;;2.10;1.10;;;6.30;99.90;;;6.20;73.94;100623.72;4844138;28;24517;-64
2024/01/22 06:53:21;;;;;;;0.70;0.70;;;6.40;99.90;;;6.24;72.88;100602.72;4851179;28;24531;-65
2024/01/22 06:55:44;;;;;;;1.20;0.90;;;6.40;99.90;;;6.31;73.18;100610.16;4851749;28;24447;-64
2024/01/22 06:58:06;;;;;;;0.70;0.70;;;6.40;99.90;;;6.34;72.44;100600.50;4854132;28;24474;-65
2024/01/22 07:00:30;;;;;;;0.80;0.80;;;6.50;99.90;;;6.45;71.98;100595.56;4826030;28;20806;-66
2024/01/22 07:02:53;;;;;;;0.90;0.90;;;6.60;99.90;;;6.45;72.61;100581.75;4846078;28;24531;-65
2024/01/22 07:05:16;;;;;;;1.90;0.70;;;6.60;99.90;;;6.53;71.24;100570.03;4853169;28;24559;-65
2024/01/22 07:07:39;;;;;;;0.80;0.70;;;6.70;99.90;;;6.58;71.61;100590.53;4833434;28;24444;-65
2024/01/22 07:10:00;;;;;;;0.60;0.60;;;6.70;99.90;;;6.65;70.34;100589.25;4814505;28;24428;-64
2024/01/22 07:12:23;;;;;;;0.80;0.80;;;6.80;99.90;;;6.72;70.59;100591.41;4834934;28;20783;-64
2024/01/22 07:14:45;;;;;;;0.70;0.70;;;6.80;99.90;;;6.76;71.24;100618.00;4817576;28;24429;-65
2024/01/22 07:17:08;;;;;;;0.80;0.80;;;6.90;99.90;;;6.72;71.29;100624.28;4814023;28;24867;-63
2024/01/22 07:19:29;;;;;;;0.70;0.70;;;6.90;99.90;;;6.70;72.83;100610.56;4827395;28;24476;-65
2024/01/22 07:21:52;;;;;;;0.98;0.75;;;6.80;99.90;;;6.71;71.79;100601.84;4851694;28;24443;-64
2024/01/22 07:24:13;;;;;;;1.42;0.70;;;6.90;99.90;;;6.79;71.61;100604.88;4853275;28;24716;-63
2024/01/22 07:26:36;;;;;;;1.30;0.77;;;6.90;99.90;;;6.87;71.61;100611.28;4823319;28;24455;-64
2024/01/22 07:28:58;;;;;;;1.67;0.60;;;7.00;99.90;;;6.90;71.38;100605.91;4835379;28;24980;-65
2024/01/22 07:31:20;;;;;;;0.63;0.63;;;7.00;99.90;;;6.94;71.71;100614.38;4843047;28;24876;-63
2024/01/22 07:33:43;;;;;;;0.50;0.50;;;7.00;99.90;;;6.92;71.42;100608.44;4849843;28;24527;-65
2024/01/22 07:36:05;;;;;;;1.00;0.90;;;7.00;99.90;;;6.93;72.17;100620.47;4844017;28;25626;-64
2024/01/22 07:38:27;;;;;;;1.40;0.80;;;7.00;99.90;;;6.87;72.84;100628.59;4845560;28;24475;-65
2024/01/22 07:40:49;;;;;;;0.70;0.70;;;7.00;99.90;;;6.91;72.35;100630.94;4845260;28;24500;-64
2024/01/22 07:43:14;;;;;;;0.50;0.50;;;7.00;99.90;;;6.88;72.77;100633.69;4835802;28;24467;-65
2024/01/22 07:45:36;;;;;;;0.80;0.60;;;7.00;99.90;;;6.86;73.46;100632.94;4839121;28;24543;-63
2024/01/22 07:47:58;;;;;;;1.40;1.30;;;7.00;99.90;;;6.93;73.53;100641.22;4852571;28;24845;-64
2024/01/22 07:50:20;;;;;;;0.70;0.70;;;7.00;99.90;;;6.92;73.12;100636.97;4856841;28;24531;-64
2024/01/22 07:52:42;;;;;;;0.60;0.60;;;7.00;99.90;;;6.93;72.73;100649.00;4855244;28;24514;-65
2024/01/22 07:55:12;;;;;;;0.90;0.90;;;7.10;99.90;;;6.93;73.78;100646.41;4855992;28;24859;-66
2024/01/22 07:57:35;;;;;;;3.10;0.70;;;7.10;99.90;;;6.96;72.78;100647.06;4850004;28;24551;-64
2024/01/22 07:59:56;;;;;;;0.70;0.65;;;7.10;99.90;;;7.04;73.00;100654.41;4847236;28;25039;-65
2024/01/22 08:02:18;;;;;;;1.40;1.30;;;7.10;99.90;;;7.02;74.34;100661.47;4857655;28;24532;-64
2024/01/22 08:04:40;;;;;;;1.35;0.80;;;7.20;99.90;;;6.94;75.49;100661.06;4832862;28;24521;-65
2024/01/22 08:07:03;;;;;;;0.90;0.68;;;7.10;99.90;;;6.95;76.46;100662.72;4850879;28;24474;-66
2024/01/22 08:09:29;;;;;;;0.83;0.80;;;7.10;99.90;;;6.84;77.28;100662.47;4837919;28;24436;-65
2024/01/22 08:11:51;;;;;;;0.90;0.60;;;7.10;99.90;;;6.88;76.90;100653.59;4845618;28;24450;-66
2024/01/22 08:14:14;;;;;;;1.50;0.90;;;7.00;99.90;;;6.85;77.32;100661.56;4850473;28;24529;-65
2024/01/22 08:16:36;;;;;;;2.00;0.90;;;7.00;99.90;;;6.91;77.25;100666.41;4838664;28;24421;-64
2024/01/22 08:18:58;;;;;;;1.30;0.82;;;7.00;99.90;;;6.92;78.31;100660.31;4854191;28;24579;-65
2024/01/22 08:21:21;;;;;;;0.75;0.75;;;7.00;99.90;;;6.89;79.58;100660.47;4822192;28;24451;-64
2024/01/22 08:23:42;;;;;;;1.15;0.90;;;7.00;99.90;;;6.81;80.15;100668.69;4836221;28;24433;-64
2024/01/22 08:26:05;;;;;;;0.70;0.70;;;7.00;99.90;;;6.82;80.97;100659.13;4854984;28;24463;-64
2024/01/22 08:28:27;;;;;;;1.60;0.83;;;7.00;99.90;;;6.83;81.40;100661.66;4852597;28;24583;-65
2024/01/22 08:30:49;;;;;;;1.80;1.20;;;7.00;99.90;;;6.78;82.49;100666.25;4856200;28;24490;-63
2024/01/22 08:33:11;;;;;;;1.30;1.20;;;6.90;99.90;;;6.74;86.84;100682.91;4853314;28;24529;-63
2024/01/22 08:35:33;;;;;;;1.10;1.00;;;6.90;99.90;;;6.61;89.65;100694.03;4851324;28;24510;-67
2024/01/22 08:37:55;;;;;;;1.30;0.65;;;6.90;99.90;;;6.48;91.69;100687.84;4850461;28;24853;-65
2024/01/22 08:40:21;;;;;;;0.95;0.95;;;6.70;99.90;;;6.36;93.15;100699.72;4853025;28;24435;-66
2024/01/22 08:42:45;;;;;;;0.90;0.90;;;6.60;99.90;;;6.31;94.93;100680.97;4833372;28;25040;-62
2024/01/22 08:45:08;;;;;;;1.80;1.10;;;6.50;99.90;;;6.13;97.08;100684.56;4837954;28;24875;-64
2024/01/22 08:47:30;;;;;;;0.50;0.50;;;6.40;99.90;;;6.14;97.32;100684.47;4848351;28;24795;-64
2024/01/22 08:49:52;;;;;;;0.80;0.68;;;6.40;99.90;;;6.14;98.30;100686.22;4844334;28;24447;-64
2024/01/22 08:52:14;;;;;;;0.80;0.80;;;6.40;99.90;;;6.08;100.00;100683.94;4851541;28;24454;-64
2024/01/22 08:54:36;;;;;;;1.30;0.70;;;6.30;99.90;;;6.04;100.00;100670.34;4848553;28;24487;-65
2024/01/22 08:56:58;;;;;;;0.60;0.60;;;6.30;99.90;;;6.11;99.97;100676.84;4843921;28;24563;-63
2024/01/22 08:59:20;;;;;;;0.70;0.70;;;6.30;99.90;;;6.12;100.00;100668.16;4856832;28;24434;-64
2024/01/22 09:01:42;;;;;;;0.90;0.90;;;6.30;99.90;;;6.19;100.00;100679.06;4853456;28;24801;-65
2024/01/22 09:04:06;;;;;;;0.73;0.73;;;6.40;99.90;;;6.18;100.00;100660.06;4857221;28;24495;-64
2024/01/22 09:06:27;;;;;;;1.00;1.00;;;6.40;99.90;;;6.17;100.00;100648.06;4853236;28;25176;-64
2024/01/22 09:08:49;;;;;;;0.65;0.65;;;6.40;99.90;;;6.27;100.00;100656.16;4825275;28;24441;-63
2024/01/22 09:11:11;;;;;;;0.50;0.50;;;6.40;99.90;;;6.38;100.00;100648.63;4839365;28;24799;-64
2024/01/22 09:13:33;;;;;;;0.85;0.85;;;6.50;99.90;;;6.45;100.00;100649.16;4853219;28;24440;-65
2024/01/22 09:15:57;;;;;;;1.83;0.80;;;6.60;99.90;;;6.50;100.00;100652.31;4847309;28;24965;-62
2024/01/22 09:18:19;;;;;;;1.20;0.60;;;6.60;99.90;;;6.49;100.00;100635.09;4850387;28;24531;-64
2024/01/22 09:20:41;;;;;;;0.60;0.60;;;6.60;99.90;;;6.55;100.00;100642.53;4853978;28;24482;-67
2024/01/22 09:23:03;;;;;;;0.80;0.80;;;6.70;99.90;;;6.53;100.00;100645.22;4848458;28;24488;-64
2024/01/22 09:25:25;;;;;;;0.70;0.70;;;6.70;99.90;;;6.59;100.00;100637.09;4846176;28;25004;-65
2024/01/22 09:27:48;;;;;;;0.60;0.60;;;6.70;99.90;;;6.54;100.00;100646.06;4835043;28;20761;-64
2024/01/22 09:30:10;;;;;;;0.70;0.70;;;6.70;99.90;;;6.53;100.00;100639.19;4847067;28;24443;-65
2024/01/22 09:32:33;;;;;;;0.70;0.60;;;6.70;99.90;;;6.55;100.00;100645.13;4849449;28;25050;-62
2024/01/22 09:34:55;;;;;;;1.10;1.00;;;6.70;99.90;;;6.52;100.00;100640.09;4847881;28;24483;-64
2024/01/22 09:37:17;;;;;;;0.63;0.63;;;6.70;99.90;;;6.57;100.00;100635.50;4850149;28;20922;-65
2024/01/22 09:39:39;;;;;;;3.80;1.23;;;6.70;99.90;;;6.62;100.00;100639.50;4850917;28;24451;-64
2024/01/22 09:42:02;;;;;;;0.98;0.98;;;6.70;99.90;;;6.60;100.00;100622.38;4811957;28;24436;-65
2024/01/22 09:44:25;;;;;;;0.77;0.70;;;6.80;99.90;;;6.65;100.00;100612.56;4845059;28;24458;-65
2024/01/22 09:46:49;;;;;;;1.30;1.20;;;6.80;99.90;;;6.67;100.00;100619.34;4829011;28;24459;-65
2024/01/22 09:49:10;;;;;;;1.33;0.90;;;6.80;99.90;;;6.75;100.00;100605.97;4834178;28;24428;-66
2024/01/22 09:51:35;;;;;;;1.80;0.60;;;6.90;99.90;;;6.81;100.00;100605.63;4832510;28;24459;-65
2024/01/22 09:54:11;;;;;;;0.80;0.80;;;6.90;99.90;;;6.88;100.00;100605.16;4840725;28;25082;-66
2024/01/22 09:56:36;;;;;;;1.00;0.80;;;7.00;99.90;;;6.89;100.00;100595.63;4836685;28;24452;-65
2024/01/22 09:59:12;;;;;;;1.40;1.03;;;7.00;99.90;;;6.85;100.00;100591.53;4833897;28;24486;-65
2024/01/22 10:01:34;;;;;;;1.10;1.00;;;7.00;99.90;;;6.83;100.00;100603.78;4851923;28;21221;-64
2024/01/22 10:03:57;;;;;;;0.88;0.88;;;7.00;99.90;;;6.93;100.00;100584.16;4854514;28;24467;-65